createdAt,value
2022-12-24T00:00:49.096Z,2.97
2022-12-24T00:03:23.240Z,2.94
2022-12-24T00:05:54.100Z,2.90
2022-12-24T00:08:24.891Z,2.87
2022-12-24T00:10:55.623Z,2.84
2022-12-24T00:13:26.420Z,2.80
2022-12-24T00:15:57.133Z,2.75
2022-12-24T00:18:27.990Z,2.73
2022-12-24T00:20:58.676Z,2.68
2022-12-24T00:23:29.441Z,2.64
2022-12-24T00:26:00.112Z,2.59
2022-12-24T00:28:30.827Z,2.59
2022-12-24T00:31:01.632Z,2.60
2022-12-24T00:33:32.360Z,2.63
2022-12-24T00:36:03.054Z,2.69
2022-12-24T00:38:33.737Z,2.74
2022-12-24T00:41:05.298Z,2.77
2022-12-24T00:43:36.081Z,2.80
2022-12-24T00:46:07.011Z,2.82
2022-12-24T00:48:37.863Z,2.84
2022-12-24T00:51:08.802Z,2.86
2022-12-24T00:53:39.584Z,2.86
2022-12-24T00:56:10.606Z,2.87
2022-12-24T00:58:41.279Z,2.88
2022-12-24T01:01:12.198Z,2.86
2022-12-24T01:03:43.286Z,2.87
2022-12-24T01:06:14.746Z,2.84
2022-12-24T01:08:45.435Z,2.82
2022-12-24T01:11:16.304Z,2.80
2022-12-24T01:13:46.936Z,2.79
2022-12-24T01:16:22.616Z,2.79
2022-12-24T01:18:53.418Z,2.76
2022-12-24T01:21:24.142Z,2.76
2022-12-24T01:23:55.130Z,2.77
2022-12-24T01:26:25.769Z,2.83
2022-12-24T01:28:57.637Z,2.89
2022-12-24T01:31:28.554Z,2.94
2022-12-24T01:33:59.258Z,2.99
2022-12-24T01:36:30.102Z,3.02
2022-12-24T01:39:01.074Z,2.98
2022-12-24T01:41:50.774Z,2.95
2022-12-24T01:44:22.967Z,2.97
2022-12-24T01:46:54.398Z,3.02
2022-12-24T01:49:25.197Z,3.03
2022-12-24T01:51:57.625Z,2.99
2022-12-24T01:54:30.613Z,2.98
2022-12-24T01:57:01.809Z,3.02
2022-12-24T01:59:32.646Z,3.04
2022-12-24T02:02:03.495Z,3.05
2022-12-24T02:04:35.818Z,3.08
2022-12-24T02:07:06.597Z,3.06
2022-12-24T02:09:37.487Z,3.07
2022-12-24T02:12:08.437Z,3.14
2022-12-24T02:14:39.161Z,3.17
2022-12-24T02:17:12.049Z,3.19
2022-12-24T02:19:49.023Z,3.20
2022-12-24T02:22:20.196Z,3.22
2022-12-24T02:25:04.708Z,3.25
2022-12-24T02:27:36.498Z,3.23
2022-12-24T02:30:14.771Z,3.22
2022-12-24T02:32:48.103Z,3.22
2022-12-24T02:35:19.965Z,3.21
2022-12-24T02:37:51.383Z,3.23
2022-12-24T02:40:23.591Z,3.23
2022-12-24T02:42:55.442Z,3.25
2022-12-24T02:45:27.741Z,3.29
2022-12-24T02:47:58.579Z,3.29
2022-12-24T02:50:29.525Z,3.28
2022-12-24T02:53:00.259Z,3.29
2022-12-24T02:55:35.184Z,3.29
2022-12-24T02:58:11.429Z,3.32
2022-12-24T03:00:45.107Z,3.34
2022-12-24T03:03:20.050Z,3.32
2022-12-24T03:05:51.661Z,3.31
2022-12-24T03:08:26.568Z,3.33
2022-12-24T03:10:58.500Z,3.29
2022-12-24T03:13:29.436Z,3.22
2022-12-24T03:16:00.192Z,3.18
2022-12-24T03:18:31.029Z,3.13
2022-12-24T03:21:02.390Z,3.12
2022-12-24T03:23:33.119Z,3.14
2022-12-24T03:26:06.218Z,3.15
2022-12-24T03:28:38.325Z,3.14
2022-12-24T03:31:34.339Z,3.13
2022-12-24T03:34:29.456Z,3.10
2022-12-24T03:37:00.766Z,3.12
2022-12-24T03:39:31.642Z,3.08
2022-12-24T03:42:02.338Z,2.97
2022-12-24T03:44:33.080Z,2.90
2022-12-24T03:47:03.801Z,2.87
2022-12-24T03:49:34.655Z,2.81
2022-12-24T03:52:05.604Z,2.77
2022-12-24T03:54:36.443Z,2.82
2022-12-24T03:57:07.162Z,2.91
2022-12-24T03:59:37.859Z,2.96
2022-12-24T04:02:08.853Z,2.98
2022-12-24T04:04:39.923Z,3.01
2022-12-24T04:07:10.678Z,3.02
2022-12-24T04:09:41.521Z,2.97
2022-12-24T04:12:12.312Z,2.90
2022-12-24T04:14:43.019Z,2.85
2022-12-24T04:17:13.681Z,2.85
2022-12-24T04:19:46.585Z,2.80
2022-12-24T04:22:17.309Z,2.74
2022-12-24T04:24:47.990Z,2.75
2022-12-24T04:27:18.940Z,2.80
2022-12-24T04:29:50.360Z,2.86
2022-12-24T04:32:21.130Z,2.90
2022-12-24T04:34:51.859Z,2.97
2022-12-24T04:37:22.669Z,2.98
2022-12-24T04:39:53.530Z,2.96
2022-12-24T04:42:24.291Z,2.94
2022-12-24T04:44:55.116Z,2.91
2022-12-24T04:47:25.920Z,2.91
2022-12-24T04:49:56.846Z,2.92
2022-12-24T04:52:27.711Z,2.93
2022-12-24T04:55:00.935Z,2.94
2022-12-24T04:57:33.918Z,2.89
2022-12-24T05:00:05.532Z,2.83
2022-12-24T05:02:36.502Z,2.79
2022-12-24T05:05:08.044Z,2.78
2022-12-24T05:07:38.853Z,2.81
2022-12-24T05:10:11.194Z,2.88
2022-12-24T05:12:41.995Z,2.91
2022-12-24T05:15:12.715Z,2.95
2022-12-24T05:17:43.595Z,2.95
2022-12-24T05:20:14.439Z,2.95
2022-12-24T05:23:11.078Z,2.92
2022-12-24T05:25:59.131Z,2.88
2022-12-24T05:28:29.821Z,2.81
2022-12-24T05:31:01.882Z,2.78
2022-12-24T05:33:33.095Z,2.77
2022-12-24T05:36:03.934Z,2.77
2022-12-24T05:38:34.777Z,2.75
2022-12-24T05:41:05.661Z,2.73
2022-12-24T05:43:36.503Z,2.74
2022-12-24T05:46:08.283Z,2.73
2022-12-24T05:48:39.161Z,2.68
2022-12-24T05:51:11.115Z,2.64
2022-12-24T05:53:42.011Z,2.65
2022-12-24T05:56:13.472Z,2.60
2022-12-24T05:58:44.761Z,2.64
2022-12-24T06:01:16.048Z,2.69
2022-12-24T06:03:46.942Z,2.75
2022-12-24T06:06:19.452Z,2.82
2022-12-24T06:08:50.525Z,2.87
2022-12-24T06:11:22.073Z,2.85
2022-12-24T06:13:53.662Z,2.85
2022-12-24T06:16:24.838Z,2.86
2022-12-24T06:18:55.803Z,2.84
2022-12-24T06:21:26.765Z,2.81
2022-12-24T06:23:57.918Z,2.80
2022-12-24T06:26:28.803Z,2.77
2022-12-24T06:29:00.802Z,2.76
2022-12-24T06:31:31.908Z,2.75
2022-12-24T06:34:02.658Z,2.74
2022-12-24T06:36:33.595Z,2.72
2022-12-24T06:39:04.429Z,2.70
2022-12-24T06:41:35.335Z,2.67
2022-12-24T06:44:06.577Z,2.66
2022-12-24T06:46:37.510Z,2.66
2022-12-24T06:49:08.506Z,2.68
2022-12-24T06:51:39.339Z,2.65
2022-12-24T06:54:10.289Z,2.60
2022-12-24T06:56:41.313Z,2.53
2022-12-24T06:59:12.218Z,2.43
2022-12-24T07:01:43.111Z,2.36
2022-12-24T07:04:20.403Z,2.37
2022-12-24T07:06:53.156Z,2.42
2022-12-24T07:09:24.053Z,2.47
2022-12-24T07:11:55.246Z,2.53
2022-12-24T07:14:25.990Z,2.56
2022-12-24T07:16:59.360Z,2.61
2022-12-24T07:19:30.509Z,2.66
2022-12-24T07:22:01.450Z,2.68
2022-12-24T07:24:32.483Z,2.67
2022-12-24T07:27:03.335Z,2.70
2022-12-24T07:29:33.957Z,2.75
2022-12-24T07:32:05.004Z,2.86
2022-12-24T07:34:35.829Z,2.95
2022-12-24T07:37:06.666Z,3.01
2022-12-24T07:39:37.336Z,3.09
2022-12-24T07:42:08.829Z,3.11
2022-12-24T07:44:40.333Z,3.11
2022-12-24T07:47:11.276Z,3.14
2022-12-24T07:49:42.237Z,3.23
2022-12-24T07:52:13.125Z,3.35
2022-12-24T07:54:43.938Z,3.41
2022-12-24T07:57:14.714Z,3.48
2022-12-24T07:59:45.554Z,3.56
2022-12-24T08:02:18.687Z,3.63
2022-12-24T08:04:49.942Z,3.71
2022-12-24T08:07:20.846Z,3.79
2022-12-24T08:09:51.655Z,3.85
2022-12-24T08:12:22.492Z,3.95
2022-12-24T08:14:53.253Z,4.06
2022-12-24T08:17:28.558Z,4.15
2022-12-24T08:20:02.986Z,4.29
2022-12-24T08:22:33.703Z,4.41
2022-12-24T08:25:04.486Z,4.53
2022-12-24T08:27:35.259Z,4.65
2022-12-24T08:30:07.128Z,4.75
2022-12-24T08:32:37.971Z,4.85
2022-12-24T08:35:09.590Z,4.96
2022-12-24T08:37:40.367Z,5.05
2022-12-24T08:40:13.117Z,5.14
2022-12-24T08:42:44.168Z,5.20
2022-12-24T08:45:15.158Z,5.24
2022-12-24T08:47:45.993Z,5.30
2022-12-24T08:50:16.877Z,5.36
2022-12-24T08:52:47.905Z,5.44
2022-12-24T08:55:18.739Z,5.51
2022-12-24T08:58:03.773Z,5.59
2022-12-24T09:00:34.903Z,5.68
2022-12-24T09:03:13.813Z,5.76
2022-12-24T09:05:48.045Z,5.86
2022-12-24T09:08:18.932Z,5.97
2022-12-24T09:10:49.893Z,6.08
2022-12-24T09:13:35.612Z,6.23
2022-12-24T09:16:12.581Z,6.42
2022-12-24T09:18:47.727Z,6.61
2022-12-24T09:21:23.337Z,6.76
2022-12-24T09:23:54.057Z,6.89
2022-12-24T09:26:29.911Z,6.98
2022-12-24T09:29:03.403Z,7.06
2022-12-24T09:31:47.509Z,7.14
2022-12-24T09:34:23.865Z,7.26
2022-12-24T09:36:58.819Z,7.33
2022-12-24T09:39:37.327Z,7.33
2022-12-24T09:42:18.127Z,7.33
2022-12-24T09:45:03.072Z,7.33
2022-12-24T09:47:36.399Z,7.31
2022-12-24T09:50:09.310Z,7.33
2022-12-24T09:52:40.453Z,7.33
2022-12-24T09:55:15.310Z,7.32
2022-12-24T09:57:46.014Z,7.27
2022-12-24T10:00:19.625Z,7.21
2022-12-24T10:02:50.687Z,7.13
2022-12-24T10:05:32.806Z,7.08
2022-12-24T10:08:12.692Z,7.03
2022-12-24T10:10:48.731Z,7.01
2022-12-24T10:13:32.291Z,6.98
2022-12-24T10:16:13.734Z,6.92
2022-12-24T10:18:51.789Z,6.87
2022-12-24T10:21:28.762Z,6.89
2022-12-24T10:24:02.188Z,6.89
2022-12-24T10:26:35.854Z,6.82
2022-12-24T10:29:09.187Z,6.79
2022-12-24T10:31:44.636Z,6.78
2022-12-24T10:34:21.200Z,6.76
2022-12-24T10:36:54.922Z,6.72
2022-12-24T10:39:27.998Z,6.78
2022-12-24T10:41:58.952Z,6.85
2022-12-24T10:44:30.412Z,6.89
2022-12-24T10:47:01.187Z,6.90
2022-12-24T10:49:33.416Z,6.89
2022-12-24T10:52:06.215Z,6.89
2022-12-24T10:54:40.097Z,6.89
2022-12-24T10:57:25.450Z,6.89
2022-12-24T10:59:56.530Z,6.91
2022-12-24T11:02:30.969Z,6.92
2022-12-24T11:05:02.568Z,6.93
2022-12-24T11:07:33.541Z,6.90
2022-12-24T11:10:06.039Z,6.88
2022-12-24T11:12:37.251Z,6.92
2022-12-24T11:15:09.538Z,6.95
2022-12-24T11:17:40.703Z,7.00
2022-12-24T11:20:17.646Z,7.06
2022-12-24T11:22:50.480Z,7.12
2022-12-24T11:25:22.532Z,7.13
2022-12-24T11:27:53.340Z,7.18
2022-12-24T11:30:25.952Z,7.26
2022-12-24T11:33:10.127Z,7.33
2022-12-24T11:35:42.483Z,7.35
2022-12-24T11:38:19.420Z,7.39
2022-12-24T11:40:53.304Z,7.40
2022-12-24T11:43:24.228Z,7.31
2022-12-24T11:45:55.906Z,7.23
2022-12-24T11:48:28.629Z,7.21
2022-12-24T11:50:59.978Z,7.23
2022-12-24T11:53:32.251Z,7.24
2022-12-24T11:56:03.995Z,7.25
2022-12-24T11:58:35.679Z,7.26
2022-12-24T12:01:15.391Z,7.27
2022-12-24T12:03:47.485Z,7.29
2022-12-24T12:06:22.010Z,7.31
2022-12-24T12:08:56.343Z,7.25
2022-12-24T12:11:29.595Z,7.14
2022-12-24T12:14:00.914Z,7.07
2022-12-24T12:16:52.465Z,7.03
2022-12-24T12:19:23.205Z,7.04
2022-12-24T12:21:54.148Z,7.01
2022-12-24T12:24:31.760Z,7.03
2022-12-24T12:27:05.033Z,7.12
2022-12-24T12:29:37.148Z,7.22
2022-12-24T12:32:08.966Z,7.24
2022-12-24T12:34:40.528Z,7.26
2022-12-24T12:37:14.954Z,7.26
2022-12-24T12:39:46.251Z,7.31
2022-12-24T12:42:18.207Z,7.31
2022-12-24T12:45:01.232Z,7.35
2022-12-24T12:47:38.658Z,7.39
2022-12-24T12:50:11.423Z,7.37
2022-12-24T12:52:46.187Z,7.33
2022-12-24T12:55:24.990Z,7.28
2022-12-24T12:57:56.797Z,7.27
2022-12-24T13:00:27.704Z,7.31
2022-12-24T13:03:22.173Z,7.35
2022-12-24T13:06:00.761Z,7.39
2022-12-24T13:08:35.836Z,7.35
2022-12-24T13:11:09.960Z,7.36
2022-12-24T13:13:56.099Z,7.42
2022-12-24T13:16:31.336Z,7.47
2022-12-24T13:19:10.337Z,7.51
2022-12-24T13:21:41.217Z,7.53
2022-12-24T13:24:16.438Z,7.48
2022-12-24T13:26:59.510Z,7.47
2022-12-24T13:29:39.694Z,7.46
2022-12-24T13:32:28.802Z,7.45
2022-12-24T13:35:00.389Z,7.37
2022-12-24T13:37:36.155Z,7.34
2022-12-24T13:40:17.387Z,7.34
2022-12-24T13:42:52.347Z,7.37
2022-12-24T13:45:41.079Z,7.42
2022-12-24T13:48:18.564Z,7.44
2022-12-24T13:50:50.417Z,7.42
2022-12-24T13:53:22.891Z,7.41
2022-12-24T13:55:55.218Z,7.39
2022-12-24T13:58:26.876Z,7.36
2022-12-24T14:00:58.103Z,7.27
2022-12-24T14:03:32.842Z,7.25
2022-12-24T14:06:04.237Z,7.21
2022-12-24T14:08:36.968Z,7.20
2022-12-24T14:11:09.521Z,7.19
2022-12-24T14:13:57.608Z,7.18
2022-12-24T14:16:31.137Z,7.17
2022-12-24T14:19:02.398Z,7.16
2022-12-24T14:21:34.726Z,7.13
2022-12-24T14:24:06.872Z,7.12
2022-12-24T14:26:38.256Z,7.11
2022-12-24T14:29:24.461Z,7.14
2022-12-24T14:31:56.415Z,7.20
2022-12-24T14:34:28.814Z,7.20
2022-12-24T14:36:59.595Z,7.20
2022-12-24T14:39:31.200Z,7.18
2022-12-24T14:42:14.471Z,7.15
2022-12-24T14:44:54.605Z,7.12
2022-12-24T14:47:27.490Z,7.04
2022-12-24T14:50:12.049Z,7.00
2022-12-24T14:55:42.725Z,7.05
2022-12-24T14:58:26.690Z,7.01
2022-12-24T15:01:04.159Z,6.98
2022-12-24T15:03:36.764Z,6.98
2022-12-24T15:06:14.809Z,6.98
2022-12-24T15:08:49.332Z,6.99
2022-12-24T15:11:23.227Z,6.97
2022-12-24T15:13:56.892Z,6.95
2022-12-24T15:16:31.055Z,6.95
2022-12-24T15:19:05.185Z,6.91
2022-12-24T15:21:41.792Z,6.86
2022-12-24T15:24:26.752Z,6.85
2022-12-24T15:27:01.823Z,6.87
2022-12-24T15:29:39.540Z,6.79
2022-12-24T15:32:14.861Z,6.74
2022-12-24T15:34:51.336Z,6.72
2022-12-24T15:37:32.253Z,6.70
2022-12-24T15:40:06.735Z,6.67
2022-12-24T15:42:41.967Z,6.66
2022-12-24T15:45:15.269Z,6.64
2022-12-24T15:47:46.750Z,6.62
2022-12-24T15:50:17.964Z,6.63
2022-12-24T15:52:48.738Z,6.64
2022-12-24T15:55:40.188Z,6.61
2022-12-24T15:58:17.546Z,6.57
2022-12-24T16:01:00.914Z,6.61
2022-12-24T16:03:34.759Z,6.62
2022-12-24T16:06:06.167Z,6.63
2022-12-24T16:08:39.154Z,6.65
2022-12-24T16:11:16.164Z,6.67
2022-12-24T16:13:59.618Z,6.68
2022-12-24T16:16:34.811Z,6.63
2022-12-24T16:19:07.215Z,6.60
2022-12-24T16:21:38.775Z,6.59
2022-12-24T16:24:14.290Z,6.61
2022-12-24T16:26:48.365Z,6.65
2022-12-24T16:29:19.836Z,6.71
2022-12-24T16:31:51.310Z,6.72
2022-12-24T16:34:22.395Z,6.69
2022-12-24T16:36:53.732Z,6.65
2022-12-24T16:39:25.165Z,6.63
2022-12-24T16:42:28.367Z,6.62
2022-12-24T16:45:00.202Z,6.62
2022-12-24T16:47:37.259Z,6.60
2022-12-24T16:50:16.159Z,6.56
2022-12-24T16:52:46.915Z,6.59
2022-12-24T16:55:17.813Z,6.62
2022-12-24T16:57:48.516Z,6.57
2022-12-24T17:00:21.539Z,6.57
2022-12-24T17:02:52.479Z,6.48
2022-12-24T17:05:24.422Z,6.45
2022-12-24T17:07:55.089Z,6.46
2022-12-24T17:10:25.823Z,6.42
2022-12-24T17:12:56.673Z,6.43
2022-12-24T17:15:27.588Z,6.40
2022-12-24T17:17:58.408Z,6.39
2022-12-24T17:20:29.269Z,6.35
2022-12-24T17:22:59.991Z,6.34
2022-12-24T17:25:30.635Z,6.35
2022-12-24T17:28:01.273Z,6.38
2022-12-24T17:30:31.986Z,6.39
2022-12-24T17:33:02.643Z,6.38
2022-12-24T17:35:33.308Z,6.33
2022-12-24T17:38:04.010Z,6.28
2022-12-24T17:40:34.679Z,6.27
2022-12-24T17:43:05.577Z,6.25
2022-12-24T17:45:36.361Z,6.26
2022-12-24T17:48:07.664Z,6.29
2022-12-24T17:50:41.304Z,6.26
2022-12-24T17:53:12.148Z,6.20
2022-12-24T17:55:43.719Z,6.17
2022-12-24T17:58:15.477Z,6.18
2022-12-24T18:00:46.327Z,6.22
2022-12-24T18:03:17.351Z,6.27
2022-12-24T18:05:48.276Z,6.26
2022-12-24T18:08:19.113Z,6.26
2022-12-24T18:10:49.977Z,6.26
2022-12-24T18:13:20.831Z,6.22
2022-12-24T18:15:51.618Z,6.16
2022-12-24T18:18:23.863Z,6.15
2022-12-24T18:20:54.671Z,6.15
2022-12-24T18:23:25.355Z,6.17
2022-12-24T18:25:55.983Z,6.20
2022-12-24T18:28:26.511Z,6.26
2022-12-24T18:31:00.603Z,6.26
2022-12-24T18:33:31.498Z,6.27
2022-12-24T18:36:02.191Z,6.28
2022-12-24T18:38:32.939Z,6.25
2022-12-24T18:41:05.206Z,6.24
2022-12-24T18:43:36.049Z,6.27
2022-12-24T18:46:09.452Z,6.29
2022-12-24T18:48:40.324Z,6.26
2022-12-24T18:51:11.437Z,6.22
2022-12-24T18:53:42.116Z,6.19
2022-12-24T18:56:14.716Z,6.22
2022-12-24T18:58:45.705Z,6.29
2022-12-24T19:01:17.291Z,6.32
2022-12-24T19:03:49.326Z,6.29
2022-12-24T19:06:20.663Z,6.28
2022-12-24T19:09:00.321Z,6.29
2022-12-24T19:11:32.308Z,6.35
2022-12-24T19:14:03.114Z,6.41
2022-12-24T19:16:34.950Z,6.47
2022-12-24T19:19:06.057Z,6.50
2022-12-24T19:21:36.673Z,6.50
2022-12-24T19:24:10.693Z,6.49
2022-12-24T19:26:41.573Z,6.41
2022-12-24T19:29:12.229Z,6.32
2022-12-24T19:31:44.389Z,6.24
2022-12-24T19:34:15.237Z,6.22
2022-12-24T19:36:46.888Z,6.20
2022-12-24T19:39:17.635Z,6.21
2022-12-24T19:41:48.720Z,6.27
2022-12-24T19:44:19.515Z,6.33
2022-12-24T19:46:50.237Z,6.38
2022-12-24T19:49:21.046Z,6.39
2022-12-24T19:51:52.548Z,6.43
2022-12-24T19:54:23.774Z,6.41
2022-12-24T19:56:54.696Z,6.38
2022-12-24T19:59:25.421Z,6.37
2022-12-24T20:01:56.362Z,6.37
2022-12-24T20:04:27.300Z,6.35
2022-12-24T20:07:00.821Z,6.32
2022-12-24T20:09:34.032Z,6.31
2022-12-24T20:12:04.956Z,6.29
2022-12-24T20:14:35.675Z,6.22
2022-12-24T20:17:06.564Z,6.21
2022-12-24T20:19:37.516Z,6.26
2022-12-24T20:22:08.298Z,6.30
2022-12-24T20:24:40.221Z,6.32
2022-12-24T20:27:11.875Z,6.34
2022-12-24T20:29:42.552Z,6.37
2022-12-24T20:32:13.419Z,6.41
2022-12-24T20:34:44.248Z,6.46
2022-12-24T20:37:14.862Z,6.49
2022-12-24T20:39:46.116Z,6.50
2022-12-24T20:42:16.815Z,6.46
2022-12-24T20:44:49.326Z,6.42
2022-12-24T20:47:20.173Z,6.37
2022-12-24T20:49:50.902Z,6.32
2022-12-24T20:52:21.715Z,6.28
2022-12-24T20:54:52.544Z,6.29
2022-12-24T20:57:27.805Z,6.26
2022-12-24T21:00:01.633Z,6.21
2022-12-24T21:02:32.637Z,6.15
2022-12-24T21:05:04.101Z,6.13
2022-12-24T21:07:34.820Z,6.12
2022-12-24T21:10:05.656Z,6.14
2022-12-24T21:12:57.079Z,6.18
2022-12-24T21:15:29.680Z,6.22
2022-12-24T21:18:00.451Z,6.29
2022-12-24T21:20:31.499Z,6.34
2022-12-24T21:23:02.832Z,6.39
2022-12-24T21:25:33.651Z,6.37
2022-12-24T21:28:04.526Z,6.31
2022-12-24T21:30:35.256Z,6.33
2022-12-24T21:33:06.173Z,6.31
2022-12-24T21:35:37.029Z,6.28
2022-12-24T21:38:08.186Z,6.25
2022-12-24T21:40:38.892Z,6.25
2022-12-24T21:43:09.862Z,6.22
2022-12-24T21:45:42.618Z,6.23
2022-12-24T21:48:27.269Z,6.22
2022-12-24T21:50:57.907Z,6.15
2022-12-24T21:53:46.184Z,6.10
2022-12-24T21:56:16.932Z,6.09
2022-12-24T21:58:47.840Z,6.08
2022-12-24T22:01:18.910Z,6.07
2022-12-24T22:03:50.807Z,6.07
2022-12-24T22:06:41.108Z,6.07
2022-12-24T22:09:30.329Z,6.06
2022-12-24T22:12:00.949Z,6.10
2022-12-24T22:14:33.220Z,6.17
2022-12-24T22:17:03.941Z,6.25
2022-12-24T22:19:34.738Z,6.27
2022-12-24T22:22:05.468Z,6.27
2022-12-24T22:24:36.201Z,6.24
2022-12-24T22:27:07.824Z,6.19
2022-12-24T22:29:38.546Z,6.15
2022-12-24T22:32:09.423Z,6.11
2022-12-24T22:34:40.200Z,6.05
2022-12-24T22:37:10.849Z,6.00
2022-12-24T22:39:41.549Z,5.99
2022-12-24T22:42:12.308Z,6.02
2022-12-24T22:44:43.093Z,6.05
2022-12-24T22:47:13.862Z,6.10
2022-12-24T22:49:44.559Z,6.09
2022-12-24T22:52:15.225Z,6.11
2022-12-24T22:54:45.920Z,6.15
2022-12-24T22:57:16.780Z,6.19
2022-12-24T22:59:49.542Z,6.21
2022-12-24T23:02:25.883Z,6.22
2022-12-24T23:04:59.016Z,6.17
2022-12-24T23:07:29.652Z,6.13
2022-12-24T23:10:00.722Z,6.11
2022-12-24T23:12:48.756Z,6.07
2022-12-24T23:15:19.609Z,6.03
2022-12-24T23:17:51.162Z,5.97
2022-12-24T23:20:21.909Z,5.88
2022-12-24T23:22:52.848Z,5.85
2022-12-24T23:25:23.591Z,5.86
2022-12-24T23:27:54.388Z,5.89
2022-12-24T23:30:25.276Z,5.93
2022-12-24T23:32:56.075Z,5.97
2022-12-24T23:35:26.845Z,5.99
2022-12-24T23:37:57.473Z,6.02
2022-12-24T23:40:28.248Z,6.02
2022-12-24T23:42:59.021Z,5.97
2022-12-24T23:45:29.731Z,5.90
2022-12-24T23:48:00.381Z,5.85
2022-12-24T23:50:31.233Z,5.80
2022-12-24T23:53:01.990Z,5.75
2022-12-24T23:55:32.833Z,5.70
2022-12-24T23:58:03.521Z,5.65
